createdAt,value
2022-11-24T00:00:53.354Z,6.70
2022-11-24T00:05:06.141Z,6.77
2022-11-24T00:09:28.399Z,6.73
2022-11-24T00:13:43.252Z,6.82
2022-11-24T00:17:55.478Z,6.81
2022-11-24T00:22:07.684Z,6.72
2022-11-24T00:26:25.766Z,6.76
2022-11-24T00:30:38.087Z,6.87
2022-11-24T00:34:50.340Z,6.88
2022-11-24T00:39:05.832Z,6.90
2022-11-24T00:43:18.472Z,6.73
2022-11-24T00:47:33.556Z,6.81
2022-11-24T00:51:45.792Z,6.90
2022-11-24T00:55:58.366Z,6.84
2022-11-24T01:00:10.953Z,6.76
2022-11-24T01:04:23.265Z,6.74
2022-11-24T01:08:38.344Z,6.84
2022-11-24T01:12:51.071Z,6.77
2022-11-24T01:17:03.368Z,6.81
2022-11-24T01:21:16.746Z,6.81
2022-11-24T01:25:29.892Z,6.78
2022-11-24T01:29:42.131Z,6.61
2022-11-24T01:33:55.205Z,6.56
2022-11-24T01:38:07.474Z,6.41
2022-11-24T01:42:19.784Z,6.35
2022-11-24T01:46:45.664Z,6.31
2022-11-24T01:51:17.090Z,6.38
2022-11-24T01:55:36.903Z,6.41
2022-11-24T01:59:52.572Z,6.42
2022-11-24T02:04:08.949Z,6.38
2022-11-24T02:08:41.768Z,6.34
2022-11-24T02:12:56.764Z,6.29
2022-11-24T02:17:09.474Z,6.10
2022-11-24T02:21:21.739Z,6.24
2022-11-24T02:25:49.253Z,6.26
2022-11-24T02:30:01.676Z,6.52
2022-11-24T02:34:13.932Z,6.41
2022-11-24T02:38:34.028Z,6.48
2022-11-24T02:42:47.556Z,6.52
2022-11-24T02:47:09.363Z,6.45
2022-11-24T02:51:21.842Z,6.53
2022-11-24T02:55:34.073Z,6.37
2022-11-24T02:59:47.356Z,6.37
2022-11-24T03:04:00.146Z,6.32
2022-11-24T03:08:13.732Z,6.32
2022-11-24T03:12:26.009Z,6.41
2022-11-24T03:16:38.277Z,6.39
2022-11-24T03:20:50.514Z,6.47
2022-11-24T03:25:02.769Z,6.46
2022-11-24T03:29:15.057Z,6.42
2022-11-24T03:33:27.277Z,6.46
2022-11-24T03:37:39.520Z,6.51
2022-11-24T03:41:54.450Z,6.51
2022-11-24T03:46:06.818Z,6.50
2022-11-24T03:50:19.221Z,6.56
2022-11-24T03:54:31.558Z,6.58
2022-11-24T03:58:43.969Z,6.59
2022-11-24T04:02:56.276Z,6.55
2022-11-24T04:07:08.651Z,6.55
2022-11-24T04:11:39.767Z,6.61
2022-11-24T04:15:52.936Z,6.63
2022-11-24T04:20:06.111Z,6.62
2022-11-24T04:24:18.374Z,6.63
2022-11-24T04:28:30.598Z,6.73
2022-11-24T04:32:42.833Z,6.68
2022-11-24T04:36:55.195Z,6.66
2022-11-24T04:41:07.413Z,6.68
2022-11-24T04:45:19.643Z,6.69
2022-11-24T04:49:32.111Z,6.79
2022-11-24T04:53:51.605Z,6.71
2022-11-24T04:58:04.204Z,6.72
2022-11-24T05:02:16.715Z,6.73
2022-11-24T05:06:29.071Z,6.76
2022-11-24T05:10:41.476Z,6.86
2022-11-24T05:14:53.707Z,6.86
2022-11-24T05:19:05.947Z,6.90
2022-11-24T05:23:18.332Z,6.86
2022-11-24T05:27:30.610Z,6.83
2022-11-24T05:31:42.858Z,6.81
2022-11-24T05:35:55.574Z,6.86
2022-11-24T05:40:08.366Z,6.83
2022-11-24T05:44:20.594Z,6.78
2022-11-24T05:48:32.817Z,6.73
2022-11-24T05:52:45.187Z,6.78
2022-11-24T05:56:57.447Z,6.77
2022-11-24T06:01:09.756Z,6.79
2022-11-24T06:05:22.530Z,6.79
2022-11-24T06:09:38.041Z,6.84
2022-11-24T06:13:50.401Z,6.85
2022-11-24T06:18:02.768Z,6.94
2022-11-24T06:22:15.000Z,6.98
2022-11-24T06:26:27.480Z,6.99
2022-11-24T06:30:39.687Z,7.01
2022-11-24T06:34:51.945Z,7.08
2022-11-24T06:39:05.022Z,7.03
2022-11-24T06:43:17.241Z,7.10
2022-11-24T06:47:29.487Z,7.11
2022-11-24T06:51:42.735Z,7.23
2022-11-24T06:55:59.700Z,7.18
2022-11-24T07:00:12.639Z,7.35
2022-11-24T07:04:24.855Z,7.38
2022-11-24T07:08:37.232Z,7.46
2022-11-24T07:12:49.476Z,7.42
2022-11-24T07:17:11.828Z,7.26
2022-11-24T07:21:25.974Z,7.32
2022-11-24T07:25:38.844Z,7.30
2022-11-24T07:29:51.108Z,7.46
2022-11-24T07:34:03.402Z,7.53
2022-11-24T07:38:16.052Z,7.39
2022-11-24T07:42:28.500Z,7.41
2022-11-24T07:46:40.734Z,7.35
2022-11-24T07:50:56.109Z,7.36
2022-11-24T07:55:09.282Z,7.43
2022-11-24T07:59:21.656Z,7.56
2022-11-24T08:03:33.931Z,7.63
2022-11-24T08:07:46.194Z,7.59
2022-11-24T08:11:58.560Z,7.69
2022-11-24T08:16:13.338Z,7.79
2022-11-24T08:20:25.736Z,7.95
2022-11-24T08:24:38.447Z,8.02
2022-11-24T08:28:55.255Z,7.92
2022-11-24T08:33:07.576Z,8.18
2022-11-24T08:37:19.816Z,8.23
2022-11-24T08:41:32.490Z,8.53
2022-11-24T08:45:44.773Z,8.57
2022-11-24T08:49:57.048Z,8.51
2022-11-24T08:54:10.960Z,8.45
2022-11-24T08:58:23.183Z,8.61
2022-11-24T09:02:35.624Z,8.50
2022-11-24T09:06:47.888Z,8.52
2022-11-24T09:11:05.383Z,8.70
2022-11-24T09:15:17.873Z,8.77
2022-11-24T09:19:30.290Z,8.89
2022-11-24T09:23:43.127Z,8.88
2022-11-24T09:27:55.613Z,9.12
2022-11-24T09:32:07.823Z,9.17
2022-11-24T09:36:30.179Z,9.48
2022-11-24T09:40:42.415Z,9.76
2022-11-24T09:45:35.699Z,9.71
2022-11-24T09:50:00.354Z,9.53
2022-11-24T09:54:19.766Z,9.48
2022-11-24T09:58:43.213Z,9.44
2022-11-24T10:02:55.572Z,9.44
2022-11-24T10:07:34.562Z,9.76
2022-11-24T10:12:11.143Z,9.59
2022-11-24T10:16:59.907Z,9.75
2022-11-24T10:21:35.596Z,9.53
2022-11-24T10:26:01.931Z,9.76
2022-11-24T10:30:24.800Z,9.12
2022-11-24T10:34:46.131Z,8.74
2022-11-24T10:39:18.271Z,8.35
2022-11-24T10:43:30.977Z,7.80
2022-11-24T10:47:44.611Z,7.34
2022-11-24T10:52:09.061Z,7.21
2022-11-24T10:56:21.332Z,7.26
2022-11-24T11:00:35.002Z,7.18
2022-11-24T11:04:47.269Z,7.54
2022-11-24T11:09:08.372Z,7.66
2022-11-24T11:13:32.034Z,8.20
2022-11-24T11:17:45.664Z,8.30
2022-11-24T11:22:27.322Z,8.30
2022-11-24T11:26:40.233Z,8.37
2022-11-24T11:31:22.402Z,8.11
2022-11-24T11:35:34.942Z,7.86
2022-11-24T11:39:49.620Z,8.01
2022-11-24T11:44:14.931Z,8.05
2022-11-24T11:48:43.235Z,8.10
2022-11-24T11:53:05.945Z,8.16
2022-11-24T11:57:46.797Z,8.05
2022-11-24T12:02:22.590Z,7.83
2022-11-24T12:06:57.830Z,8.00
2022-11-24T12:11:19.352Z,8.00
2022-11-24T12:15:40.336Z,8.16
2022-11-24T12:20:18.692Z,8.40
2022-11-24T12:24:49.187Z,8.15
2022-11-24T12:29:24.824Z,8.12
2022-11-24T12:34:04.164Z,8.32
2022-11-24T12:38:32.822Z,8.00
2022-11-24T12:43:13.643Z,8.20
2022-11-24T12:47:42.621Z,8.20
2022-11-24T12:52:48.502Z,8.23
2022-11-24T12:57:08.626Z,8.03
2022-11-24T13:01:41.291Z,7.91
2022-11-24T13:06:15.298Z,8.11
2022-11-24T13:15:43.391Z,8.20
2022-11-24T13:19:50.116Z,8.50
2022-11-24T13:24:21.300Z,8.46
2022-11-24T13:29:12.960Z,8.23
2022-11-24T13:33:32.837Z,8.41
2022-11-24T13:37:47.656Z,8.22
2022-11-24T13:42:01.096Z,8.57
2022-11-24T13:46:13.458Z,8.59
2022-11-24T13:50:51.847Z,8.66
2022-11-24T13:55:13.407Z,8.56
2022-11-24T13:59:35.280Z,8.60
2022-11-24T14:08:39.162Z,8.19
2022-11-24T14:13:24.750Z,8.27
2022-11-24T14:17:38.345Z,8.23
2022-11-24T14:21:50.648Z,8.01
2022-11-24T14:26:03.051Z,7.31
2022-11-24T14:30:15.474Z,6.43
2022-11-24T14:34:30.558Z,6.70
2022-11-24T14:38:43.627Z,6.73
2022-11-24T14:42:55.953Z,6.74
2022-11-24T14:47:14.685Z,6.78
2022-11-24T14:51:32.151Z,6.84
2022-11-24T14:55:44.459Z,6.88
2022-11-24T15:00:09.834Z,6.91
2022-11-24T15:05:00.976Z,6.89
2022-11-24T15:08:58.399Z,6.86
2022-11-24T15:13:25.766Z,6.70
2022-11-24T15:17:38.147Z,6.41
2022-11-24T15:21:51.469Z,6.17
2022-11-24T15:26:03.746Z,6.15
2022-11-24T15:30:16.064Z,6.04
2022-11-24T15:34:29.492Z,6.06
2022-11-24T15:38:41.776Z,5.99
2022-11-24T15:42:56.109Z,5.97
2022-11-24T15:47:09.667Z,5.84
2022-11-24T15:51:27.435Z,5.69
2022-11-24T15:55:41.455Z,5.44
2022-11-24T15:59:54.071Z,5.34
2022-11-24T16:04:06.356Z,5.22
2022-11-24T16:08:18.778Z,5.18
2022-11-24T16:12:31.103Z,5.21
2022-11-24T16:16:43.464Z,5.22
2022-11-24T16:20:55.927Z,5.29
2022-11-24T16:25:08.638Z,5.53
2022-11-24T16:29:21.763Z,5.65
2022-11-24T16:33:34.044Z,5.62
2022-11-24T16:37:56.364Z,5.64
2022-11-24T16:42:08.732Z,5.85
2022-11-24T16:46:22.681Z,6.04
2022-11-24T16:50:35.042Z,5.99
2022-11-24T16:54:48.347Z,5.93
2022-11-24T16:59:00.637Z,5.98
2022-11-24T17:03:12.899Z,5.71
2022-11-24T17:07:25.215Z,5.64
2022-11-24T17:11:37.863Z,5.45
2022-11-24T17:15:54.120Z,5.36
2022-11-24T17:20:07.648Z,5.35
2022-11-24T17:24:19.915Z,5.21
2022-11-24T17:28:32.579Z,5.49
2022-11-24T17:32:44.828Z,5.42
2022-11-24T17:36:57.295Z,5.54
2022-11-24T17:41:09.714Z,5.57
2022-11-24T17:45:26.895Z,5.69
2022-11-24T17:49:39.249Z,5.66
2022-11-24T17:53:53.055Z,5.58
2022-11-24T17:58:05.406Z,5.46
2022-11-24T18:02:17.744Z,5.35
2022-11-24T18:06:30.344Z,5.18
2022-11-24T18:10:42.615Z,5.03
2022-11-24T18:14:57.615Z,4.81
2022-11-24T18:19:11.611Z,4.68
2022-11-24T18:23:24.847Z,4.61
2022-11-24T18:27:37.149Z,4.53
2022-11-24T18:31:49.497Z,4.65
2022-11-24T18:36:02.846Z,4.75
2022-11-24T18:40:17.057Z,4.82
2022-11-24T18:44:29.324Z,4.80
2022-11-24T18:48:42.377Z,4.84
2022-11-24T18:52:54.954Z,4.70
2022-11-24T18:57:07.239Z,4.50
2022-11-24T19:01:21.997Z,4.30
2022-11-24T19:05:35.463Z,4.20
2022-11-24T19:09:48.434Z,4.11
2022-11-24T19:14:02.297Z,4.16
2022-11-24T19:18:14.603Z,4.12
2022-11-24T19:22:26.857Z,4.02
2022-11-24T19:26:39.774Z,4.02
2022-11-24T19:30:52.089Z,3.96
2022-11-24T19:35:04.694Z,3.87
2022-11-24T19:39:17.538Z,3.79
2022-11-24T19:43:30.789Z,3.77
2022-11-24T19:47:43.182Z,3.46
2022-11-24T19:51:55.518Z,3.40
2022-11-24T19:56:17.062Z,3.24
2022-11-24T20:00:32.127Z,3.13
2022-11-24T20:04:44.625Z,3.01
2022-11-24T20:08:58.919Z,2.95
2022-11-24T20:13:11.197Z,2.91
2022-11-24T20:17:23.500Z,2.79
2022-11-24T20:21:37.282Z,2.73
2022-11-24T20:25:49.751Z,2.73
2022-11-24T20:30:04.590Z,2.57
2022-11-24T20:34:17.386Z,2.40
2022-11-24T20:38:31.798Z,2.33
2022-11-24T20:42:44.109Z,2.23
2022-11-24T20:46:58.860Z,2.16
2022-11-24T20:51:14.638Z,2.08
2022-11-24T20:55:26.902Z,2.05
2022-11-24T20:59:39.194Z,1.94
2022-11-24T21:03:57.707Z,1.88
2022-11-24T21:08:10.013Z,1.76
2022-11-24T21:12:22.298Z,1.77
2022-11-24T21:16:36.699Z,1.70
2022-11-24T21:20:49.228Z,1.66
2022-11-24T21:25:01.573Z,1.55
2022-11-24T21:29:15.735Z,1.49
2022-11-24T21:33:28.027Z,1.32
2022-11-24T21:37:40.353Z,1.33
2022-11-24T21:41:52.659Z,1.30
2022-11-24T21:46:07.909Z,1.33
2022-11-24T21:50:20.241Z,1.36
2022-11-24T21:54:32.853Z,1.35
2022-11-24T21:58:48.039Z,1.41
2022-11-24T22:03:10.299Z,1.35
2022-11-24T22:07:22.988Z,1.38
2022-11-24T22:11:35.320Z,1.32
2022-11-24T22:15:47.631Z,1.21
2022-11-24T22:19:59.967Z,1.35
2022-11-24T22:24:12.510Z,1.23
2022-11-24T22:28:36.016Z,1.35
2022-11-24T22:32:48.310Z,1.20
2022-11-24T22:37:00.578Z,1.21
2022-11-24T22:41:18.314Z,1.18
2022-11-24T22:45:30.632Z,1.06
2022-11-24T22:49:43.043Z,1.09
2022-11-24T22:53:58.390Z,1.10
2022-11-24T22:58:10.786Z,1.09
2022-11-24T23:02:23.095Z,1.11
2022-11-24T23:06:35.403Z,1.09
2022-11-24T23:10:47.869Z,1.10
2022-11-24T23:15:00.583Z,1.16
2022-11-24T23:19:13.355Z,1.20
2022-11-24T23:23:25.647Z,1.16
2022-11-24T23:27:38.000Z,1.11
2022-11-24T23:31:50.282Z,1.08
2022-11-24T23:36:04.842Z,1.08
2022-11-24T23:40:18.043Z,1.06
2022-11-24T23:44:30.326Z,1.03
2022-11-24T23:48:42.797Z,1.00
2022-11-24T23:52:55.214Z,1.00
2022-11-24T23:57:07.499Z,0.99
